Terminal Aerodrome Forecast
Issued by NWS

Home | Current Version | Previous Version | Text Only | Print | Product List | Glossary On
Versions: 1 2 3 4 5 6 7 8 9 10 11 12 13 14 15 16 17 18 19 20 21
000
FTUS44 KLIX 251437 AAA
TAFMCB
TAF AMD
KMCB 251437Z 2515/2612 VRB05KT P6SM -RA BKN005 OVC070
     FM251900 07005KT 4SM -RA BR OVC015
     FM252100 08006KT 6SM -RA BR OVC025
     FM260200 09006KT 4SM -SHRA OVC015
     FM260600 17005KT 4SM -SHRA VCTS OVC007CB=

USA.gov is the U.S. government's official web portal to all federal, state and local government web resources and services.